createdAt,value
2022-07-29T00:01:43.793Z,49.78
2022-07-29T00:04:13.085Z,49.77
2022-07-29T00:06:44.131Z,49.87
2022-07-29T00:09:14.720Z,49.92
2022-07-29T00:11:44.637Z,50.04
2022-07-29T00:14:13.258Z,50.04
2022-07-29T00:16:42.945Z,50.15
2022-07-29T00:19:11.701Z,50.12
2022-07-29T00:21:42.033Z,50.25
2022-07-29T00:24:10.779Z,50.26
2022-07-29T00:26:40.638Z,50.04
2022-07-29T00:31:57.767Z,50.68
2022-07-29T00:34:43.319Z,50.52
2022-07-29T00:37:13.171Z,50.52
2022-07-29T00:39:42.079Z,50.41
2022-07-29T00:42:12.033Z,50.59
2022-07-29T00:44:41.371Z,50.58
2022-07-29T00:47:10.851Z,50.69
2022-07-29T00:49:42.286Z,50.88
2022-07-29T00:52:12.753Z,50.76
2022-07-29T00:54:45.916Z,50.79
2022-07-29T00:57:17.299Z,50.95
2022-07-29T00:59:46.464Z,50.86
2022-07-29T01:02:15.217Z,50.96
2022-07-29T01:04:44.297Z,50.93
2022-07-29T01:07:13.640Z,50.80
2022-07-29T01:09:47.169Z,50.99
2022-07-29T01:12:29.796Z,51.01
2022-07-29T01:14:59.932Z,50.91
2022-07-29T01:17:35.209Z,50.75
2022-07-29T01:20:12.805Z,50.99
2022-07-29T01:23:21.578Z,51.17
2022-07-29T01:26:42.015Z,51.30
2022-07-29T01:29:36.075Z,51.19
2022-07-29T01:32:28.651Z,51.37
2022-07-29T01:35:04.257Z,50.95
2022-07-29T01:37:42.165Z,51.06
2022-07-29T01:40:19.381Z,51.15
2022-07-29T01:42:52.658Z,50.98
2022-07-29T01:45:29.613Z,50.73
2022-07-29T01:48:03.429Z,51.03
2022-07-29T01:50:36.620Z,51.03
2022-07-29T01:53:09.232Z,51.16
2022-07-29T01:55:43.546Z,50.94
2022-07-29T01:58:15.379Z,51.01
2022-07-29T02:00:48.286Z,51.42
2022-07-29T02:03:20.054Z,51.21
2022-07-29T02:05:51.848Z,51.13
2022-07-29T02:08:23.400Z,51.49
2022-07-29T02:10:55.108Z,51.39
2022-07-29T02:13:28.557Z,51.53
2022-07-29T02:16:01.083Z,51.64
2022-07-29T02:18:30.842Z,51.59
2022-07-29T02:21:01.893Z,51.56
2022-07-29T02:23:31.558Z,51.78
2022-07-29T02:26:24.560Z,51.59
2022-07-29T02:28:58.876Z,51.67
2022-07-29T02:31:35.355Z,51.83
2022-07-29T02:34:06.366Z,51.49
2022-07-29T02:36:36.285Z,51.64
2022-07-29T02:39:10.548Z,51.71
2022-07-29T02:41:46.106Z,51.76
2022-07-29T02:44:17.327Z,51.70
2022-07-29T02:46:52.166Z,51.78
2022-07-29T02:49:32.417Z,51.74
2022-07-29T02:52:04.342Z,51.77
2022-07-29T02:54:40.747Z,51.74
2022-07-29T02:57:16.501Z,51.77
2022-07-29T02:59:47.879Z,51.35
2022-07-29T03:02:19.229Z,51.64
2022-07-29T03:04:51.789Z,51.51
2022-07-29T03:07:23.325Z,51.14
2022-07-29T03:09:53.326Z,51.60
2022-07-29T03:12:22.779Z,51.49
2022-07-29T03:14:51.765Z,51.61
2022-07-29T03:17:24.430Z,51.72
2022-07-29T03:19:53.519Z,51.75
2022-07-29T03:22:22.573Z,51.75
2022-07-29T03:24:51.869Z,51.61
2022-07-29T03:27:21.282Z,51.63
2022-07-29T03:29:50.729Z,51.47
2022-07-29T03:32:25.097Z,51.70
2022-07-29T03:34:54.156Z,51.65
2022-07-29T03:37:26.459Z,51.49
2022-07-29T03:39:58.954Z,51.48
2022-07-29T03:42:34.156Z,51.39
2022-07-29T03:45:08.294Z,51.73
2022-07-29T03:47:50.973Z,51.17
2022-07-29T03:50:25.784Z,51.18
2022-07-29T03:52:55.086Z,51.30
2022-07-29T03:55:29.403Z,51.31
2022-07-29T03:57:59.279Z,51.17
2022-07-29T04:00:30.041Z,51.15
2022-07-29T04:03:00.993Z,51.08
2022-07-29T04:05:29.603Z,51.21
2022-07-29T04:07:58.524Z,51.28
2022-07-29T04:10:32.078Z,51.08
2022-07-29T04:13:03.612Z,51.15
2022-07-29T04:15:32.117Z,51.28
2022-07-29T04:18:02.282Z,51.11
2022-07-29T04:20:42.146Z,51.01
2022-07-29T04:23:10.919Z,51.01
2022-07-29T04:25:43.175Z,51.04
2022-07-29T04:28:12.723Z,50.82
2022-07-29T04:30:41.823Z,50.80
2022-07-29T04:33:13.496Z,50.97
2022-07-29T04:35:49.730Z,51.07
2022-07-29T04:38:19.528Z,51.30
2022-07-29T04:40:49.729Z,50.92
2022-07-29T04:43:22.529Z,51.24
2022-07-29T04:45:52.434Z,50.96
2022-07-29T04:48:33.312Z,50.93
2022-07-29T04:51:01.956Z,51.05
2022-07-29T04:53:32.429Z,51.03
2022-07-29T04:56:01.698Z,51.03
2022-07-29T04:58:31.025Z,51.35
2022-07-29T05:01:00.228Z,51.14
2022-07-29T05:03:40.980Z,51.21
2022-07-29T05:06:12.734Z,51.07
2022-07-29T05:08:41.915Z,50.83
2022-07-29T05:13:58.713Z,51.01
2022-07-29T05:16:30.158Z,50.29
2022-07-29T05:19:00.497Z,50.36
2022-07-29T05:21:30.455Z,50.46
2022-07-29T05:23:59.615Z,50.51
2022-07-29T05:26:28.777Z,50.45
2022-07-29T05:34:30.792Z,50.39
2022-07-29T05:37:00.526Z,50.34
2022-07-29T05:39:36.621Z,50.39
2022-07-29T05:42:19.072Z,50.43
2022-07-29T05:44:48.924Z,50.19
2022-07-29T05:47:17.454Z,50.22
2022-07-29T05:49:50.707Z,50.03
2022-07-29T05:52:21.686Z,50.22
2022-07-29T05:54:52.553Z,50.19
2022-07-29T05:57:25.359Z,50.11
2022-07-29T05:59:54.917Z,50.07
2022-07-29T06:02:27.011Z,49.69
2022-07-29T06:05:03.749Z,49.59
2022-07-29T06:07:34.112Z,49.75
2022-07-29T06:10:05.177Z,49.57
2022-07-29T06:12:34.179Z,49.79
2022-07-29T06:15:03.265Z,49.69
2022-07-29T06:17:32.854Z,49.52
2022-07-29T06:20:18.950Z,49.42
2022-07-29T06:23:00.308Z,49.36
2022-07-29T06:25:49.771Z,49.11
2022-07-29T06:28:35.047Z,49.09
2022-07-29T06:31:08.408Z,48.87
2022-07-29T06:34:26.005Z,48.46
2022-07-29T06:37:04.278Z,48.44
2022-07-29T06:39:35.384Z,48.46
2022-07-29T06:42:10.753Z,48.40
2022-07-29T06:44:39.188Z,48.26
2022-07-29T06:47:09.305Z,47.97
2022-07-29T06:49:38.166Z,48.33
2022-07-29T06:52:08.141Z,48.24
2022-07-29T06:54:36.408Z,48.37
2022-07-29T06:57:06.001Z,48.07
2022-07-29T06:59:35.956Z,47.94
2022-07-29T07:02:04.886Z,47.98
2022-07-29T07:04:37.671Z,47.68
2022-07-29T07:07:07.796Z,47.87
2022-07-29T07:09:40.494Z,47.58
2022-07-29T07:12:11.359Z,47.39
2022-07-29T07:14:41.324Z,47.30
2022-07-29T07:17:13.242Z,47.14
2022-07-29T07:19:44.354Z,46.96
2022-07-29T07:22:20.758Z,46.96
2022-07-29T07:24:54.891Z,46.63
2022-07-29T07:27:47.127Z,46.62
2022-07-29T07:33:37.569Z,46.72
2022-07-29T07:36:25.002Z,46.75
2022-07-29T07:39:15.883Z,46.76
2022-07-29T07:41:44.441Z,46.59
2022-07-29T07:44:16.364Z,46.62
2022-07-29T07:46:47.029Z,46.49
2022-07-29T07:49:21.328Z,46.34
2022-07-29T07:54:50.925Z,45.99
2022-07-29T07:57:39.896Z,46.26
2022-07-29T08:00:23.321Z,46.27
2022-07-29T08:02:59.874Z,46.32
2022-07-29T08:05:34.944Z,46.08
2022-07-29T08:08:16.602Z,46.38
2022-07-29T08:11:08.765Z,46.24
2022-07-29T08:14:11.493Z,46.23
2022-07-29T08:16:44.863Z,46.44
2022-07-29T08:19:30.465Z,46.42
2022-07-29T08:25:40.918Z,46.46
2022-07-29T08:28:29.635Z,46.24
2022-07-29T08:30:58.297Z,45.91
2022-07-29T08:33:31.442Z,45.89
2022-07-29T08:36:00.102Z,45.60
2022-07-29T08:41:27.046Z,45.80
2022-07-29T08:46:57.014Z,45.65
2022-07-29T08:49:34.233Z,45.36
2022-07-29T08:52:05.855Z,44.95
2022-07-29T08:54:36.987Z,44.72
2022-07-29T08:57:05.779Z,44.35
2022-07-29T08:59:38.775Z,44.07
2022-07-29T09:02:21.180Z,43.81
2022-07-29T09:04:53.026Z,43.80
2022-07-29T09:07:36.011Z,43.12
2022-07-29T09:13:25.658Z,42.35
2022-07-29T09:15:55.897Z,42.27
2022-07-29T09:19:00.184Z,41.85
2022-07-29T09:22:07.014Z,41.64
2022-07-29T09:25:04.788Z,41.31
2022-07-29T09:27:41.720Z,41.09
2022-07-29T09:30:30.468Z,40.67
2022-07-29T09:33:05.519Z,40.29
2022-07-29T09:41:47.326Z,39.80
2022-07-29T09:44:23.444Z,39.48
2022-07-29T09:47:17.106Z,39.03
2022-07-29T09:49:59.507Z,38.62
2022-07-29T09:52:34.764Z,38.34
2022-07-29T09:55:18.100Z,37.98
2022-07-29T09:58:06.380Z,37.02
2022-07-29T10:16:10.427Z,34.74
2022-07-29T10:18:44.868Z,35.30
2022-07-29T10:34:37.850Z,33.95
2022-07-29T10:37:35.530Z,33.91
2022-07-29T10:40:38.433Z,34.50
2022-07-29T10:46:16.009Z,34.53
2022-07-29T10:52:05.784Z,34.45
2022-07-29T10:57:25.910Z,34.52
2022-07-29T11:00:35.124Z,35.14
2022-07-29T11:03:10.577Z,35.45
2022-07-29T11:06:00.294Z,35.19
2022-07-29T11:08:38.419Z,35.26
2022-07-29T11:11:51.484Z,35.12
2022-07-29T11:14:26.444Z,35.09
2022-07-29T11:17:10.261Z,34.84
2022-07-29T11:19:52.545Z,33.97
2022-07-29T11:22:37.237Z,33.47
2022-07-29T11:25:43.035Z,33.32
2022-07-29T11:28:22.681Z,33.66
2022-07-29T11:30:59.176Z,33.74
2022-07-29T11:33:54.815Z,33.19
2022-07-29T11:36:28.206Z,33.03
2022-07-29T11:42:52.002Z,33.67
2022-07-29T11:45:48.359Z,33.75
2022-07-29T11:48:31.500Z,33.90
2022-07-29T11:51:04.761Z,33.84
2022-07-29T11:53:37.168Z,34.40
2022-07-29T11:56:10.395Z,34.42
2022-07-29T11:58:42.699Z,34.49
2022-07-29T12:01:17.183Z,34.09
2022-07-29T12:03:51.807Z,33.72
2022-07-29T12:06:33.876Z,33.57
2022-07-29T12:07:03.237Z,34.00
2022-07-29T12:09:19.187Z,34.85
2022-07-29T12:11:54.207Z,34.82
2022-07-29T12:17:54.200Z,35.00
2022-07-29T12:20:29.257Z,35.41
2022-07-29T12:22:59.392Z,35.48
2022-07-29T12:25:35.575Z,34.18
2022-07-29T12:28:27.390Z,34.00
2022-07-29T12:30:57.326Z,34.06
2022-07-29T12:33:33.240Z,33.50
2022-07-29T12:36:11.586Z,33.29
2022-07-29T12:39:11.454Z,32.99
2022-07-29T12:50:22.106Z,32.39
2022-07-29T12:52:55.667Z,32.19
2022-07-29T12:55:45.656Z,31.79
2022-07-29T12:58:22.114Z,32.12
2022-07-29T13:01:01.936Z,31.89
2022-07-29T13:06:08.833Z,32.22
2022-07-29T13:08:41.031Z,31.98
2022-07-29T13:11:09.690Z,32.67
2022-07-29T13:17:04.044Z,31.78
2022-07-29T13:19:44.826Z,31.98
2022-07-29T13:22:18.160Z,32.62
2022-07-29T13:25:20.924Z,31.80
2022-07-29T13:27:59.495Z,31.85
2022-07-29T13:30:30.123Z,32.82
2022-07-29T13:33:01.998Z,32.72
2022-07-29T13:35:40.152Z,32.73
2022-07-29T13:38:10.394Z,33.25
2022-07-29T13:41:22.938Z,32.55
2022-07-29T13:44:05.176Z,32.90
2022-07-29T13:46:39.553Z,33.46
2022-07-29T13:49:12.569Z,33.02
2022-07-29T13:51:41.271Z,31.84
2022-07-29T13:54:12.636Z,30.15
2022-07-29T13:56:44.564Z,29.29
2022-07-29T13:59:18.976Z,29.05
2022-07-29T14:01:50.572Z,28.63
2022-07-29T14:04:20.201Z,27.40
2022-07-29T14:06:51.098Z,26.07
2022-07-29T14:09:20.862Z,25.65
2022-07-29T14:11:51.582Z,25.96
2022-07-29T14:14:37.857Z,27.31
2022-07-29T14:17:11.368Z,28.74
2022-07-29T14:19:50.478Z,27.95
2022-07-29T14:22:23.089Z,27.48
2022-07-29T14:25:21.201Z,27.06
2022-07-29T14:31:07.272Z,26.46
2022-07-29T14:33:39.730Z,25.38
2022-07-29T14:36:10.688Z,25.31
2022-07-29T14:38:39.750Z,25.42
2022-07-29T14:41:19.734Z,25.70
2022-07-29T14:44:16.434Z,25.78
2022-07-29T14:46:50.009Z,26.36
2022-07-29T14:49:22.239Z,26.83
2022-07-29T14:51:51.920Z,27.09
2022-07-29T14:54:21.728Z,26.65
2022-07-29T14:56:56.784Z,27.34
2022-07-29T14:59:25.743Z,27.53
2022-07-29T15:01:58.625Z,27.77
2022-07-29T15:04:35.409Z,29.03
2022-07-29T15:07:07.235Z,29.82
2022-07-29T15:09:49.312Z,29.40
2022-07-29T15:12:21.043Z,30.51
2022-07-29T15:14:54.054Z,31.43
2022-07-29T15:17:40.412Z,31.94
2022-07-29T15:20:10.433Z,30.40
2022-07-29T15:22:46.044Z,30.31
2022-07-29T15:25:24.618Z,30.40
2022-07-29T15:28:00.943Z,29.28
2022-07-29T15:30:42.756Z,28.43
2022-07-29T15:33:22.090Z,28.54
2022-07-29T15:39:07.808Z,27.63
2022-07-29T15:41:38.776Z,27.80
2022-07-29T15:44:08.637Z,28.04
2022-07-29T15:49:59.731Z,28.13
2022-07-29T15:52:32.225Z,28.56
2022-07-29T15:55:17.551Z,27.75
2022-07-29T15:57:47.900Z,27.05
2022-07-29T16:00:20.112Z,26.00
2022-07-29T16:02:51.187Z,26.67
2022-07-29T16:05:25.389Z,25.06
2022-07-29T16:07:54.222Z,24.82
2022-07-29T16:10:23.676Z,23.42
2022-07-29T16:12:55.642Z,23.31
2022-07-29T16:15:26.198Z,22.91
2022-07-29T16:17:58.212Z,22.93
2022-07-29T16:20:28.295Z,21.56
2022-07-29T16:22:58.204Z,21.88
2022-07-29T16:25:57.580Z,22.42
2022-07-29T16:28:15.860Z,22.25
2022-07-29T16:30:44.626Z,21.46
2022-07-29T16:33:15.213Z,21.70
2022-07-29T16:36:01.043Z,21.20
2022-07-29T16:38:47.205Z,20.52
2022-07-29T16:41:24.276Z,19.36
2022-07-29T16:44:00.299Z,20.61
2022-07-29T16:46:35.142Z,21.10
2022-07-29T16:49:06.524Z,21.19
2022-07-29T16:51:39.095Z,20.22
2022-07-29T16:57:06.781Z,20.04
2022-07-29T16:59:43.374Z,21.54
2022-07-29T17:02:13.016Z,22.30
2022-07-29T17:04:43.258Z,22.75
2022-07-29T17:07:34.146Z,23.63
2022-07-29T17:10:06.261Z,24.48
2022-07-29T17:12:36.847Z,25.24
2022-07-29T17:15:06.829Z,25.80
2022-07-29T17:17:38.913Z,26.69
2022-07-29T17:20:25.003Z,27.39
2022-07-29T17:22:56.568Z,27.63
2022-07-29T17:25:25.137Z,27.36
2022-07-29T17:28:00.725Z,26.91
2022-07-29T17:30:40.538Z,26.47
2022-07-29T17:33:15.709Z,25.61
2022-07-29T17:36:01.808Z,25.72
2022-07-29T17:38:32.393Z,25.69
2022-07-29T17:41:01.555Z,26.44
2022-07-29T17:44:04.165Z,26.81
2022-07-29T17:46:50.555Z,26.96
2022-07-29T17:49:20.566Z,26.49
2022-07-29T17:52:02.037Z,25.42
2022-07-29T17:54:44.153Z,24.13
2022-07-29T17:57:24.906Z,23.78
2022-07-29T17:59:54.244Z,23.34
2022-07-29T18:02:23.797Z,23.77
2022-07-29T18:04:55.201Z,24.36
2022-07-29T18:07:24.664Z,24.79
2022-07-29T18:10:00.902Z,25.05
2022-07-29T18:12:37.180Z,25.00
2022-07-29T18:15:23.228Z,25.29
2022-07-29T18:17:57.765Z,25.73
2022-07-29T18:20:27.676Z,25.75
2022-07-29T18:22:58.551Z,26.20
2022-07-29T18:25:43.966Z,27.23
2022-07-29T18:28:15.808Z,26.73
2022-07-29T18:30:46.522Z,27.54
2022-07-29T18:33:22.633Z,27.79
2022-07-29T18:36:10.002Z,28.55
2022-07-29T18:38:42.946Z,28.64
2022-07-29T18:41:12.692Z,29.19
2022-07-29T18:43:46.170Z,29.01
2022-07-29T18:46:15.463Z,28.77
2022-07-29T18:48:44.064Z,27.79
2022-07-29T18:51:14.336Z,28.28
2022-07-29T18:53:42.610Z,28.99
2022-07-29T18:56:12.351Z,29.43
2022-07-29T18:58:40.997Z,29.39
2022-07-29T19:01:14.764Z,29.48
2022-07-29T19:03:45.262Z,29.14
2022-07-29T19:06:13.931Z,28.17
2022-07-29T19:08:46.792Z,27.96
2022-07-29T19:11:30.719Z,28.04
2022-07-29T19:13:59.056Z,28.72
2022-07-29T19:16:27.490Z,29.51
2022-07-29T19:18:56.396Z,29.94
2022-07-29T19:21:28.121Z,30.56
2022-07-29T19:24:01.411Z,30.84
2022-07-29T19:26:46.625Z,31.48
2022-07-29T19:29:15.113Z,32.07
2022-07-29T19:31:44.277Z,32.63
2022-07-29T19:34:12.827Z,33.28
2022-07-29T19:36:42.083Z,33.95
2022-07-29T19:39:10.747Z,34.50
2022-07-29T19:41:40.661Z,34.48
2022-07-29T19:44:08.950Z,35.06
2022-07-29T19:46:37.600Z,35.75
2022-07-29T19:49:07.012Z,36.14
2022-07-29T19:51:36.274Z,36.45
2022-07-29T19:54:04.930Z,36.76
2022-07-29T19:56:34.618Z,37.51
2022-07-29T19:59:08.508Z,37.80
2022-07-29T20:01:37.262Z,38.71
2022-07-29T20:04:05.889Z,38.79
2022-07-29T20:06:34.276Z,39.05
2022-07-29T20:09:02.627Z,39.38
2022-07-29T20:11:31.077Z,39.75
2022-07-29T20:13:59.999Z,40.55
2022-07-29T20:16:30.177Z,40.74
2022-07-29T20:19:01.015Z,41.38
2022-07-29T20:21:29.536Z,41.57
2022-07-29T20:24:00.530Z,41.40
2022-07-29T20:26:28.785Z,41.81
2022-07-29T20:28:57.267Z,42.11
2022-07-29T20:31:26.046Z,42.24
2022-07-29T20:33:55.650Z,42.44
2022-07-29T20:36:23.850Z,42.78
2022-07-29T20:38:52.556Z,42.78
2022-07-29T20:41:21.839Z,42.84
2022-07-29T20:43:51.201Z,42.78
2022-07-29T20:46:22.245Z,43.38
2022-07-29T20:48:51.214Z,43.53
2022-07-29T20:51:25.275Z,43.43
2022-07-29T20:53:53.792Z,43.64
2022-07-29T20:56:22.523Z,43.85
2022-07-29T20:58:52.558Z,44.01
2022-07-29T21:01:21.989Z,44.11
2022-07-29T21:03:50.861Z,43.91
2022-07-29T21:06:22.907Z,44.34
2022-07-29T21:08:55.907Z,44.46
2022-07-29T21:11:44.797Z,43.91
2022-07-29T21:14:20.283Z,44.45
2022-07-29T21:16:48.622Z,44.36
2022-07-29T21:19:19.304Z,44.60
2022-07-29T21:21:50.650Z,44.70
2022-07-29T21:24:20.123Z,44.55
2022-07-29T21:27:11.000Z,44.65
2022-07-29T21:29:35.877Z,44.33
2022-07-29T21:32:04.337Z,44.64
2022-07-29T21:34:32.610Z,44.80
2022-07-29T21:37:02.568Z,44.72
2022-07-29T21:39:31.280Z,45.19
2022-07-29T21:41:59.714Z,45.39
2022-07-29T21:44:28.886Z,45.37
2022-07-29T21:46:57.485Z,45.26
2022-07-29T21:49:26.187Z,45.66
2022-07-29T21:51:54.726Z,45.53
2022-07-29T21:54:24.659Z,45.80
2022-07-29T21:56:53.456Z,45.88
2022-07-29T21:59:22.498Z,45.84
2022-07-29T22:01:51.153Z,45.85
2022-07-29T22:04:19.804Z,45.85
2022-07-29T22:06:51.004Z,45.80
2022-07-29T22:12:16.750Z,46.36
2022-07-29T22:14:45.276Z,46.21
2022-07-29T22:17:13.862Z,46.09
2022-07-29T22:19:42.563Z,46.15
2022-07-29T22:22:11.086Z,46.08
2022-07-29T22:24:39.402Z,46.34
2022-07-29T22:27:07.675Z,46.17
2022-07-29T22:29:37.789Z,46.68
2022-07-29T22:32:06.553Z,46.64
2022-07-29T22:34:37.228Z,46.91
2022-07-29T22:37:06.541Z,46.86
2022-07-29T22:39:35.387Z,46.72
2022-07-29T22:42:05.163Z,46.91
2022-07-29T22:44:33.443Z,46.82
2022-07-29T22:47:04.139Z,47.09
2022-07-29T22:49:32.590Z,46.73
2022-07-29T22:52:02.346Z,46.90
2022-07-29T22:54:30.791Z,47.00
2022-07-29T22:56:59.455Z,47.09
2022-07-29T22:59:27.992Z,46.96
2022-07-29T23:01:56.443Z,47.19
2022-07-29T23:04:26.441Z,47.38
2022-07-29T23:06:54.837Z,47.44
2022-07-29T23:09:23.113Z,47.52
2022-07-29T23:11:51.479Z,47.49
2022-07-29T23:14:20.047Z,47.51
2022-07-29T23:16:49.229Z,47.31
2022-07-29T23:19:17.816Z,47.61
2022-07-29T23:21:47.436Z,47.81
2022-07-29T23:24:15.622Z,47.64
2022-07-29T23:26:43.758Z,47.94
2022-07-29T23:29:12.053Z,47.64
2022-07-29T23:31:47.757Z,47.99
2022-07-29T23:34:16.645Z,47.91
2022-07-29T23:36:47.677Z,47.97
2022-07-29T23:39:16.263Z,48.25
2022-07-29T23:41:44.463Z,48.26
2022-07-29T23:44:12.594Z,48.46
2022-07-29T23:46:40.923Z,48.35
2022-07-29T23:49:09.246Z,48.53
2022-07-29T23:51:37.473Z,48.79
2022-07-29T23:54:07.319Z,48.76
2022-07-29T23:56:35.531Z,48.87
2022-07-29T23:59:03.983Z,49.06
